Hebron, Illinois
Current Conditions -  °F | °C
As of 5:35 PM on Saturday 25 Oct 2014 (Local Time) from KBUU Reporting Station
Clear Clear  
Wind Chill: 62°   Ceiling: Unl
Heat Index: 62°   Visibility: 10mi
Dew Point: 27°   Wind: 13mph
Humidity: 27%   Direction: 300°WNW
Pressure: 29.92"   Gusts: 22mph
Location:  42.47°N, 88.43°W
Report Text: KBUU 252235Z AUTO 30011G19KT 10SM CLR 17/M03 A2992 RMK AO2 T01661027
Loading
Personal Weather Stations






























Interactive Weather Map
Tropical Storm Tracking
New forecast layout! Learn more

10-Day Weather Forecast

Advertisements
Track Severe Weather on mobile